createdAt,value
2017-11-28T00:00:47.247Z,81.07
2017-11-28T00:01:46.953Z,81.17
2017-11-28T00:02:46.930Z,80.6
2017-11-28T00:03:46.913Z,80.98
2017-11-28T00:04:46.888Z,80.98
2017-11-28T00:05:47.145Z,80.56
2017-11-28T00:06:46.846Z,80.98
2017-11-28T00:07:46.827Z,80.79
2017-11-28T00:08:46.805Z,80.84
2017-11-28T00:09:47.059Z,80.6
2017-11-28T00:10:46.763Z,80.65
2017-11-28T00:11:46.744Z,80.75
2017-11-28T00:12:46.727Z,80.94
2017-11-28T00:13:46.701Z,81.04
2017-11-28T00:14:47.156Z,80.56
2017-11-28T00:15:46.933Z,81.13
2017-11-28T00:16:46.640Z,81.23
2017-11-28T00:17:46.890Z,80.84
2017-11-28T00:18:46.876Z,80.94
2017-11-28T00:19:46.847Z,80.75
2017-11-28T00:20:46.830Z,80.84
2017-11-28T00:21:46.815Z,80.46
2017-11-28T00:22:46.822Z,80.65
2017-11-28T00:23:46.494Z,80.75
2017-11-28T00:24:46.476Z,80.56
2017-11-28T00:25:46.452Z,80.56
2017-11-28T00:26:46.698Z,80.94
2017-11-28T00:27:46.413Z,80.94
2017-11-28T00:28:46.665Z,80.94
2017-11-28T00:29:46.640Z,80.65
2017-11-28T00:30:46.621Z,80.18
2017-11-28T00:31:46.329Z,80.56
2017-11-28T00:32:46.304Z,80.84
2017-11-28T00:33:46.554Z,80.75
2017-11-28T00:34:46.537Z,80.94
2017-11-28T00:35:46.517Z,80.84
2017-11-28T00:36:46.493Z,80.75
2017-11-28T00:37:46.475Z,80.37
2017-11-28T00:38:46.180Z,80.56
2017-11-28T00:39:46.465Z,80.46
2017-11-28T00:40:46.406Z,80.56
2017-11-28T00:41:46.418Z,80.56
2017-11-28T00:42:46.365Z,80.84
2017-11-28T00:43:46.347Z,81.04
2017-11-28T00:44:46.053Z,80.08
2017-11-28T00:45:46.314Z,80.75
2017-11-28T00:46:46.283Z,80.46
2017-11-28T00:47:45.996Z,80.56
2017-11-28T00:48:46.243Z,80.46
2017-11-28T00:49:45.950Z,80.75
2017-11-28T00:50:45.932Z,80.56
2017-11-28T00:51:46.185Z,80.46
2017-11-28T00:52:45.889Z,80.75
2017-11-28T00:53:45.867Z,80.56
2017-11-28T00:54:45.849Z,80.75
2017-11-28T00:55:46.099Z,80.56
2017-11-28T00:56:45.805Z,80.37
2017-11-28T00:57:46.091Z,80.84
2017-11-28T00:58:46.033Z,80.27
2017-11-28T00:59:46.009Z,80.84
2017-11-28T01:00:45.996Z,80.56
2017-11-28T01:01:45.707Z,80.75
2017-11-28T01:02:45.947Z,80.75
2017-11-28T01:03:45.965Z,80.75
2017-11-28T01:04:45.640Z,80.46
2017-11-28T01:05:45.617Z,80.75
2017-11-28T01:06:45.599Z,80.65
2017-11-28T01:07:45.845Z,80.46
2017-11-28T01:08:45.835Z,80.46
2017-11-28T01:09:45.809Z,80.65
2017-11-28T01:10:45.790Z,80.75
2017-11-28T01:11:45.493Z,80.46
2017-11-28T01:12:45.474Z,80.75
2017-11-28T01:13:45.716Z,80.46
2017-11-28T01:14:45.430Z,80.65
2017-11-28T01:15:45.679Z,80.84
2017-11-28T01:16:45.657Z,80.94
2017-11-28T01:17:45.638Z,80.75
2017-11-28T01:18:45.351Z,80.94
2017-11-28T01:19:45.322Z,80.94
2017-11-28T01:20:45.573Z,81.04
2017-11-28T01:21:45.285Z,80.56
2017-11-28T01:22:45.263Z,81.13
2017-11-28T01:23:45.528Z,80.46
2017-11-28T01:24:45.223Z,81.13
2017-11-28T01:25:45.478Z,81.13
2017-11-28T01:26:45.457Z,81.04
2017-11-28T01:27:45.161Z,81.13
2017-11-28T01:28:45.409Z,80.94
2017-11-28T01:29:45.116Z,80.94
2017-11-28T01:30:45.370Z,80.84
2017-11-28T01:31:45.342Z,80.84
2017-11-28T01:32:45.053Z,80.94
2017-11-28T01:33:45.032Z,81.13
2017-11-28T01:34:45.302Z,80.94
2017-11-28T01:35:45.269Z,81.23
2017-11-28T01:36:44.969Z,81.23
2017-11-28T01:37:44.953Z,80.94
2017-11-28T01:38:45.199Z,80.84
2017-11-28T01:39:45.190Z,81.13
2017-11-28T01:40:44.889Z,80.84
2017-11-28T01:41:44.863Z,81.04
2017-11-28T01:42:44.843Z,81.13
2017-11-28T01:43:45.094Z,81.04
2017-11-28T01:44:44.802Z,81.23
2017-11-28T01:45:44.781Z,81.04
2017-11-28T01:46:45.028Z,81.23
2017-11-28T01:47:45.012Z,81.04
2017-11-28T01:48:44.987Z,81.41
2017-11-28T01:49:44.970Z,80.94
2017-11-28T01:50:44.943Z,80.84
2017-11-28T01:51:44.930Z,80.94
2017-11-28T01:52:44.902Z,81.51
2017-11-28T01:53:44.613Z,81.51
2017-11-28T01:54:44.865Z,81.51
2017-11-28T01:55:44.847Z,81.41
2017-11-28T01:56:44.557Z,81.51
2017-11-28T01:57:44.798Z,81.51
2017-11-28T01:58:44.798Z,81.32
2017-11-28T01:59:44.758Z,81.51
2017-11-28T02:00:44.738Z,81.41
2017-11-28T02:01:44.714Z,81.41
2017-11-28T02:02:44.701Z,81.6
2017-11-28T02:03:44.676Z,81.51
2017-11-28T02:04:44.653Z,81.79
2017-11-28T02:05:44.637Z,81.51
2017-11-28T02:06:44.615Z,81.51
2017-11-28T02:07:44.598Z,81.51
2017-11-28T02:08:44.569Z,81.51
2017-11-28T02:09:44.545Z,81.32
2017-11-28T02:10:44.255Z,81.51
2017-11-28T02:11:44.504Z,81.7
2017-11-28T02:12:44.482Z,81.6
2017-11-28T02:13:44.193Z,81.7
2017-11-28T02:14:44.374Z,81.32
2017-11-28T02:15:44.150Z,81.41
2017-11-28T02:16:44.396Z,81.88
2017-11-28T02:17:44.109Z,81.98
2017-11-28T02:18:44.086Z,81.7
2017-11-28T02:19:44.335Z,81.98
2017-11-28T02:20:44.318Z,81.88
2017-11-28T02:21:44.294Z,81.88
2017-11-28T02:22:44.295Z,81.7
2017-11-28T02:23:43.985Z,81.79
2017-11-28T02:24:43.965Z,81.6
2017-11-28T02:25:43.937Z,81.79
2017-11-28T02:26:44.191Z,81.88
2017-11-28T02:27:43.895Z,82.08
2017-11-28T02:28:44.150Z,81.88
2017-11-28T02:29:44.145Z,82.46
2017-11-28T02:30:44.111Z,82.36
2017-11-28T02:31:44.089Z,82.27
2017-11-28T02:32:44.061Z,82.46
2017-11-28T02:33:44.048Z,82.46
2017-11-28T02:34:44.022Z,82.46
2017-11-28T02:35:44.001Z,82.08
2017-11-28T02:36:43.706Z,82.65
2017-11-28T02:37:43.686Z,82.27
2017-11-28T02:38:43.946Z,82.65
2017-11-28T02:39:43.944Z,82.84
2017-11-28T02:40:43.894Z,83.03
2017-11-28T02:41:43.884Z,82.93
2017-11-28T02:42:43.591Z,82.84
2017-11-28T02:43:43.833Z,82.74
2017-11-28T02:44:43.539Z,82.93
2017-11-28T02:45:43.519Z,82.84
2017-11-28T02:46:43.499Z,82.84
2017-11-28T02:47:43.478Z,82.65
2017-11-28T02:48:43.728Z,82.74
2017-11-28T02:49:43.723Z,82.36
2017-11-28T02:50:43.686Z,82.55
2017-11-28T02:51:43.680Z,83.22
2017-11-28T02:52:43.642Z,83.31
2017-11-28T02:53:43.351Z,83.4
2017-11-28T02:54:43.611Z,83.88
2017-11-28T02:55:43.583Z,83.97
2017-11-28T02:56:43.560Z,83.59
2017-11-28T02:57:43.544Z,83.31
2017-11-28T02:58:43.523Z,83.31
2017-11-28T02:59:43.504Z,83.12
2017-11-28T03:00:43.203Z,83.59
2017-11-28T03:01:43.190Z,83.78
2017-11-28T03:02:43.166Z,83.22
2017-11-28T03:03:43.145Z,83.22
2017-11-28T03:04:43.398Z,83.4
2017-11-28T03:05:43.104Z,83.69
2017-11-28T03:06:43.081Z,83.31
2017-11-28T03:07:43.328Z,82.74
2017-11-28T03:08:43.045Z,83.12
2017-11-28T03:09:43.283Z,82.74
2017-11-28T03:10:43.270Z,82.74
2017-11-28T03:11:42.974Z,83.03
2017-11-28T03:12:43.224Z,83.31
2017-11-28T03:13:42.930Z,82.17
2017-11-28T03:14:43.182Z,82.27
2017-11-28T03:15:43.167Z,82.27
2017-11-28T03:16:42.867Z,81.98
2017-11-28T03:17:42.846Z,82.36
2017-11-28T03:18:42.827Z,82.08
2017-11-28T03:19:42.806Z,82.27
2017-11-28T03:20:42.788Z,81.88
2017-11-28T03:21:42.768Z,81.7
2017-11-28T03:22:43.014Z,81.79
2017-11-28T03:23:42.991Z,81.7
2017-11-28T03:24:42.702Z,81.51
2017-11-28T03:25:42.956Z,81.51
2017-11-28T03:26:42.660Z,81.23
2017-11-28T03:27:42.637Z,81.32
2017-11-28T03:28:42.893Z,81.7
2017-11-28T03:29:42.598Z,81.41
2017-11-28T03:30:42.868Z,81.7
2017-11-28T03:31:42.824Z,81.6
2017-11-28T03:32:42.538Z,81.7
2017-11-28T03:33:42.513Z,81.88
2017-11-28T03:34:42.490Z,81.7
2017-11-28T03:35:42.471Z,81.88
2017-11-28T03:36:42.448Z,81.7
2017-11-28T03:37:42.429Z,81.88
2017-11-28T03:38:42.682Z,81.79
2017-11-28T03:39:42.655Z,81.79
2017-11-28T03:40:42.367Z,81.88
2017-11-28T03:41:42.614Z,81.41
2017-11-28T03:42:42.601Z,81.51
2017-11-28T03:43:42.571Z,81.98
2017-11-28T03:44:42.551Z,81.51
2017-11-28T03:45:42.528Z,81.79
2017-11-28T03:46:42.510Z,82.08
2017-11-28T03:47:42.216Z,81.79
2017-11-28T03:48:42.199Z,82.17
2017-11-28T03:49:42.173Z,82.27
2017-11-28T03:50:42.154Z,82.08
2017-11-28T03:51:42.140Z,82.36
2017-11-28T03:52:42.385Z,82.08
2017-11-28T03:53:42.361Z,82.36
2017-11-28T03:54:42.070Z,81.98
2017-11-28T03:55:42.049Z,82.65
2017-11-28T03:56:42.306Z,82.08
2017-11-28T03:57:42.275Z,82.46
2017-11-28T03:58:42.269Z,81.98
2017-11-28T03:59:41.965Z,81.7
2017-11-28T04:00:42.213Z,81.88
2017-11-28T04:01:42.194Z,81.88
2017-11-28T04:02:42.173Z,81.7
2017-11-28T04:03:42.150Z,81.98
2017-11-28T04:04:41.861Z,81.41
2017-11-28T04:05:42.111Z,81.51
2017-11-28T04:06:42.088Z,81.41
2017-11-28T04:07:41.797Z,81.41
2017-11-28T04:08:42.047Z,81.51
2017-11-28T04:09:41.757Z,81.41
2017-11-28T04:10:41.733Z,81.6
2017-11-28T04:11:41.981Z,80.84
2017-11-28T04:12:41.967Z,81.51
2017-11-28T04:13:41.942Z,81.23
2017-11-28T04:14:41.852Z,81.04
2017-11-28T04:15:41.901Z,81.04
2017-11-28T04:16:41.614Z,80.84
2017-11-28T04:17:41.586Z,81.04
2017-11-28T04:18:41.565Z,81.04
2017-11-28T04:19:41.818Z,81.23
2017-11-28T04:20:41.526Z,80.75
2017-11-28T04:21:41.509Z,80.84
2017-11-28T04:22:41.751Z,80.84
2017-11-28T04:23:41.733Z,80.75
2017-11-28T04:24:41.711Z,80.84
2017-11-28T04:25:41.689Z,80.75
2017-11-28T04:26:41.667Z,80.75
2017-11-28T04:27:41.651Z,80.75
2017-11-28T04:28:41.363Z,79.99
2017-11-28T04:29:41.603Z,80.18
2017-11-28T04:30:41.586Z,80.08
2017-11-28T04:31:41.566Z,80.08
2017-11-28T04:32:41.543Z,79.99
2017-11-28T04:33:41.251Z,79.8
2017-11-28T04:34:41.509Z,80.08
2017-11-28T04:35:41.209Z,79.61
2017-11-28T04:36:41.186Z,79.8
2017-11-28T04:37:41.167Z,79.9
2017-11-28T04:38:41.416Z,79.33
2017-11-28T04:39:41.396Z,79.52
2017-11-28T04:40:41.373Z,79.33
2017-11-28T04:41:41.082Z,79.33
2017-11-28T04:42:41.068Z,79.23
2017-11-28T04:43:41.316Z,79.52
2017-11-28T04:44:41.294Z,79.52
2017-11-28T04:45:41.269Z,79.71
2017-11-28T04:46:40.977Z,80.08
2017-11-28T04:47:40.959Z,79.99
2017-11-28T04:48:41.212Z,80.37
2017-11-28T04:49:41.186Z,80.18
2017-11-28T04:50:40.894Z,80.37
2017-11-28T04:51:41.146Z,79.99
2017-11-28T04:52:41.123Z,80.37
2017-11-28T04:53:41.100Z,80.18
2017-11-28T04:54:40.849Z,80.94
2017-11-28T04:55:40.788Z,81.32
2017-11-28T04:56:41.042Z,81.88
2017-11-28T04:57:41.017Z,81.41
2017-11-28T04:58:40.997Z,81.7
2017-11-28T04:59:40.974Z,81.41
2017-11-28T05:00:40.685Z,81.51
2017-11-28T05:01:40.940Z,81.41
2017-11-28T05:02:40.648Z,81.23
2017-11-28T05:03:40.892Z,80.56
2017-11-28T05:04:40.868Z,81.88
2017-11-28T05:05:40.580Z,82.4
2017-11-28T05:06:40.559Z,81.6
2017-11-28T05:07:40.543Z,81.88
2017-11-28T05:08:40.516Z,81.41
2017-11-28T05:09:40.788Z,81.6
2017-11-28T05:10:40.474Z,81.6
2017-11-28T05:11:40.456Z,81.88
2017-11-28T05:12:40.702Z,81.6
2017-11-28T05:13:40.412Z,81.41
2017-11-28T05:14:40.661Z,80.84
2017-11-28T05:15:40.372Z,80.84
2017-11-28T05:16:40.350Z,80.65
2017-11-28T05:17:40.602Z,80.75
2017-11-28T05:18:40.581Z,81.23
2017-11-28T05:19:40.289Z,81.04
2017-11-28T05:20:40.557Z,80.75
2017-11-28T05:21:40.525Z,80.75
2017-11-28T05:22:40.509Z,80.37
2017-11-28T05:23:40.209Z,80.56
2017-11-28T05:24:40.459Z,80.08
2017-11-28T05:25:40.168Z,79.71
2017-11-28T05:26:40.420Z,79.99
2017-11-28T05:27:40.122Z,79.99
2017-11-28T05:28:40.100Z,79.99
2017-11-28T05:29:40.080Z,79.99
2017-11-28T05:30:40.329Z,79.61
2017-11-28T05:31:40.038Z,80.56
2017-11-28T05:32:40.019Z,80.94
2017-11-28T05:33:39.997Z,80.94
2017-11-28T05:34:39.976Z,80.65
2017-11-28T05:35:40.225Z,79.9
2017-11-28T05:36:39.938Z,80.08
2017-11-28T05:37:40.190Z,80.46
2017-11-28T05:38:39.896Z,80.84
2017-11-28T05:39:39.885Z,80.69
2017-11-28T05:40:40.133Z,80.46
2017-11-28T05:41:40.104Z,80.84
2017-11-28T05:42:40.107Z,82.03
2017-11-28T05:43:40.078Z,81.88
2017-11-28T05:44:40.038Z,81.6
2017-11-28T05:45:40.029Z,82.4
2017-11-28T05:46:39.734Z,81.79
2017-11-28T05:47:39.982Z,82.31
2017-11-28T05:48:39.960Z,81.98
2017-11-28T05:49:39.944Z,82.36
2017-11-28T05:50:39.913Z,82.08
2017-11-28T05:51:39.627Z,83.31
2017-11-28T05:52:39.603Z,83.03
2017-11-28T05:53:39.852Z,83.31
2017-11-28T05:54:39.567Z,83.22
2017-11-28T05:55:39.545Z,83.31
2017-11-28T05:56:39.520Z,82.65
2017-11-28T05:57:39.769Z,83.5
2017-11-28T05:58:39.760Z,83.78
2017-11-28T05:59:39.457Z,83.78
2017-11-28T06:00:39.710Z,83.59
2017-11-28T06:01:39.703Z,84.17
2017-11-28T06:02:39.663Z,84.74
2017-11-28T06:03:39.652Z,84.17
2017-11-28T06:04:39.354Z,85.11
2017-11-28T06:05:39.612Z,84.36
2017-11-28T06:06:39.610Z,84.55
2017-11-28T06:07:39.298Z,83.78
2017-11-28T06:08:39.536Z,83.69
2017-11-28T06:09:39.526Z,84.55
2017-11-28T06:10:39.228Z,84.45
2017-11-28T06:11:39.208Z,84.83
2017-11-28T06:12:39.463Z,85.21
2017-11-28T06:13:39.167Z,84.92
2017-11-28T06:14:39.348Z,85.21
2017-11-28T06:15:39.395Z,84.92
2017-11-28T06:16:39.371Z,84.74
2017-11-28T06:17:39.349Z,84.92
2017-11-28T06:18:39.332Z,84.45
2017-11-28T06:19:39.309Z,84.17
2017-11-28T06:20:39.288Z,84.17
2017-11-28T06:21:39.275Z,83.69
2017-11-28T06:22:38.979Z,83.69
2017-11-28T06:23:38.956Z,83.12
2017-11-28T06:24:39.205Z,83.03
2017-11-28T06:25:39.205Z,83.31
2017-11-28T06:26:38.897Z,83.69
2017-11-28T06:27:38.877Z,83.78
2017-11-28T06:28:38.853Z,83.59
2017-11-28T06:29:39.102Z,83.78
2017-11-28T06:30:39.084Z,83.59
2017-11-28T06:31:39.053Z,82.74
2017-11-28T06:32:39.040Z,83.31
2017-11-28T06:33:38.743Z,83.31
2017-11-28T06:34:38.730Z,82.27
2017-11-28T06:35:38.700Z,82.65
2017-11-28T06:36:38.956Z,82.65
2017-11-28T06:37:38.660Z,82.36
2017-11-28T06:38:38.906Z,83.31
2017-11-28T06:39:38.890Z,83.31
2017-11-28T06:40:38.863Z,82.84
2017-11-28T06:41:38.573Z,82.84
2017-11-28T06:42:38.822Z,82.55
2017-11-28T06:43:38.534Z,81.88
2017-11-28T06:44:38.777Z,81.7
2017-11-28T06:45:38.768Z,81.6
2017-11-28T06:46:38.740Z,81.6
2017-11-28T06:47:38.723Z,81.6
2017-11-28T06:48:38.420Z,81.51
2017-11-28T06:49:38.673Z,81.88
2017-11-28T06:50:38.647Z,81.23
2017-11-28T06:51:38.362Z,81.04
2017-11-28T06:52:38.605Z,80.94
2017-11-28T06:53:38.316Z,81.23
2017-11-28T06:54:38.575Z,81.32
2017-11-28T06:55:38.548Z,80.84
2017-11-28T06:56:38.523Z,81.13
2017-11-28T06:57:38.502Z,82.17
2017-11-28T06:58:38.490Z,82.93
2017-11-28T06:59:38.467Z,82.36
2017-11-28T07:00:38.166Z,83.03
2017-11-28T07:01:38.414Z,82.65
2017-11-28T07:02:38.128Z,83.12
2017-11-28T07:03:38.375Z,84.55
2017-11-28T07:04:38.078Z,83.88
2017-11-28T07:05:38.339Z,85.87
2017-11-28T07:06:38.045Z,85.02
2017-11-28T07:07:38.021Z,84.26
2017-11-28T07:08:38.267Z,85.21
2017-11-28T07:09:37.976Z,85.87
2017-11-28T07:10:38.229Z,86.16
2017-11-28T07:11:38.206Z,86.25
2017-11-28T07:12:38.191Z,86.44
2017-11-28T07:13:38.162Z,85.97
2017-11-28T07:14:38.159Z,85.97
2017-11-28T07:15:38.129Z,85.97
2017-11-28T07:16:38.116Z,86.44
2017-11-28T07:17:37.808Z,86.91
2017-11-28T07:18:38.066Z,86.35
2017-11-28T07:19:38.035Z,87.39
2017-11-28T07:20:38.015Z,87.39
2017-11-28T07:21:37.725Z,88.34
2017-11-28T07:22:37.971Z,89.39
2017-11-28T07:23:37.680Z,89.86
2017-11-28T07:24:37.931Z,89.39
2017-11-28T07:25:37.640Z,89.39
2017-11-28T07:26:37.619Z,88.15
2017-11-28T07:27:37.868Z,88.43
2017-11-28T07:28:37.845Z,88.43
2017-11-28T07:29:37.557Z,88.15
2017-11-28T07:30:37.806Z,88.15
2017-11-28T07:31:37.794Z,88.15
2017-11-28T07:32:37.491Z,88.43
2017-11-28T07:33:37.475Z,87.68
2017-11-28T07:34:37.718Z,87.39
2017-11-28T07:35:37.427Z,87.2
2017-11-28T07:36:37.427Z,87.77
2017-11-28T07:37:37.655Z,87.96
2017-11-28T07:38:37.374Z,87.11
2017-11-28T07:39:37.627Z,87.11
2017-11-28T07:40:37.328Z,87.58
2017-11-28T07:41:37.576Z,87.2
2017-11-28T07:42:37.554Z,87.58
2017-11-28T07:43:37.542Z,86.82
2017-11-28T07:44:37.531Z,86.72
2017-11-28T07:45:37.226Z,86.54
2017-11-28T07:46:37.199Z,86.16
2017-11-28T07:47:37.454Z,85.97
2017-11-28T07:48:37.158Z,85.97
2017-11-28T07:49:37.137Z,85.87
2017-11-28T07:50:37.384Z,86.44
2017-11-28T07:51:37.097Z,86.72
2017-11-28T07:52:37.344Z,86.07
2017-11-28T07:53:37.333Z,86.54
2017-11-28T07:54:37.309Z,86.07
2017-11-28T07:55:37.276Z,85.4
2017-11-28T07:56:37.265Z,85.4
2017-11-28T07:57:36.969Z,86.63
2017-11-28T07:58:37.256Z,85.97
2017-11-28T07:59:36.926Z,85.49
2017-11-28T08:00:37.175Z,85.78
2017-11-28T08:01:37.152Z,86.07
2017-11-28T08:02:36.862Z,87.3
2017-11-28T08:03:36.845Z,87.2
2017-11-28T08:04:36.827Z,87.58
2017-11-28T08:05:37.118Z,89.58
2017-11-28T08:06:37.046Z,89.58
2017-11-28T08:07:36.760Z,90.14
2017-11-28T08:08:37.008Z,91.99
2017-11-28T08:09:36.714Z,92.94
2017-11-28T08:10:36.967Z,93.08
2017-11-28T08:11:36.676Z,92.42
2017-11-28T08:12:36.930Z,92.14
2017-11-28T08:13:36.902Z,91.19
2017-11-28T08:14:36.814Z,90.33
2017-11-28T08:15:36.593Z,90.52
2017-11-28T08:16:36.846Z,90.81
2017-11-28T08:17:36.840Z,90.43
2017-11-28T08:18:36.531Z,91
2017-11-28T08:19:36.785Z,90.47
2017-11-28T08:20:36.487Z,90.76
2017-11-28T08:21:36.466Z,91.42
2017-11-28T08:22:36.715Z,91.99
2017-11-28T08:23:36.704Z,91.61
2017-11-28T08:24:36.680Z,91.8
2017-11-28T08:25:36.660Z,91.52
2017-11-28T08:26:36.635Z,91.75
2017-11-28T08:27:36.610Z,93.18
2017-11-28T08:28:36.327Z,94.32
2017-11-28T08:29:36.302Z,93.32
2017-11-28T08:30:36.555Z,93.08
2017-11-28T08:31:36.554Z,93.13
2017-11-28T08:32:36.243Z,93.84
2017-11-28T08:33:36.498Z,94.7
2017-11-28T08:34:36.468Z,94.32
2017-11-28T08:35:36.455Z,94.46
2017-11-28T08:36:36.430Z,94.23
2017-11-28T08:37:36.143Z,93.94
2017-11-28T08:38:36.131Z,94.42
2017-11-28T08:39:36.367Z,93.18
2017-11-28T08:40:36.076Z,92.9
2017-11-28T08:41:36.332Z,93.08
2017-11-28T08:42:36.303Z,93.94
2017-11-28T08:43:36.392Z,93.18
2017-11-28T08:44:35.995Z,92.33
2017-11-28T08:45:36.245Z,92.9
2017-11-28T08:46:35.951Z,93.46
2017-11-28T08:47:35.929Z,94.89
2017-11-28T08:48:36.185Z,94.23
2017-11-28T08:49:35.888Z,94.03
2017-11-28T08:50:36.138Z,94.79
2017-11-28T08:51:36.119Z,94.89
2017-11-28T08:52:36.098Z,94.46
2017-11-28T08:53:36.090Z,94.84
2017-11-28T08:54:36.055Z,95.89
2017-11-28T08:55:35.768Z,96.08
2017-11-28T08:56:36.009Z,95.6
2017-11-28T08:57:36.012Z,96.08
2017-11-28T08:58:35.703Z,97.31
2017-11-28T08:59:35.688Z,96.74
2017-11-28T09:00:35.929Z,97.02
2017-11-28T09:01:35.909Z,97.41
2017-11-28T09:02:35.892Z,96.36
2017-11-28T09:03:35.876Z,98.16
2017-11-28T09:04:35.578Z,97.69
2017-11-28T09:05:35.828Z,97.02
2017-11-28T09:06:35.808Z,97.78
2017-11-28T09:07:35.517Z,95.51
2017-11-28T09:08:35.769Z,95.51
2017-11-28T09:09:35.478Z,96.08
2017-11-28T09:10:35.726Z,96.17
2017-11-28T09:11:35.705Z,95.79
2017-11-28T09:12:35.420Z,98.92
2017-11-28T09:13:35.670Z,99.11
2017-11-28T09:14:35.651Z,97.78
2017-11-28T09:15:35.628Z,98.83
2017-11-28T09:16:35.334Z,98.73
2017-11-28T09:17:35.588Z,99.77
2017-11-28T09:18:35.572Z,99.99
2017-11-28T09:19:35.274Z,99.99
2017-11-28T09:20:35.259Z,99.99
2017-11-28T09:21:35.506Z,99.99
2017-11-28T09:22:35.215Z,99.99
2017-11-28T09:23:35.486Z,99.99
2017-11-28T09:24:35.446Z,99.99
2017-11-28T09:25:35.429Z,99.99
2017-11-28T09:26:35.130Z,99.99
2017-11-28T09:27:35.390Z,99.99
2017-11-28T09:28:35.363Z,99.99
2017-11-28T09:29:35.348Z,99.99
2017-11-28T09:30:35.050Z,99.99
2017-11-28T09:31:35.034Z,99.99
2017-11-28T09:32:35.012Z,99.99
2017-11-28T09:33:35.261Z,99.99
2017-11-28T09:34:35.241Z,99.99
2017-11-28T09:35:35.225Z,99.99
2017-11-28T09:36:35.206Z,99.99
2017-11-28T09:37:35.187Z,99.99
2017-11-28T09:38:35.166Z,99.99
2017-11-28T09:39:35.147Z,99.99
2017-11-28T09:40:35.132Z,99.99
2017-11-28T09:41:35.109Z,99.99
2017-11-28T09:42:35.090Z,99.99
2017-11-28T09:43:35.072Z,99.99
2017-11-28T09:44:35.051Z,99.99
2017-11-28T09:45:35.037Z,99.99
2017-11-28T09:46:35.033Z,99.99
2017-11-28T09:47:35.011Z,99.99
2017-11-28T09:48:34.985Z,99.99
2017-11-28T09:49:34.700Z,99.99
2017-11-28T09:50:34.948Z,99.99
2017-11-28T09:51:34.650Z,99.99
2017-11-28T09:52:34.632Z,99.99
2017-11-28T09:53:34.616Z,99.99
2017-11-28T09:54:34.876Z,99.99
2017-11-28T09:55:34.588Z,99.99
2017-11-28T09:56:34.837Z,99.99
2017-11-28T09:57:34.547Z,99.99
2017-11-28T09:58:34.792Z,99.99
2017-11-28T09:59:34.507Z,99.99
2017-11-28T10:00:34.759Z,99.99
2017-11-28T10:01:34.473Z,99.99
2017-11-28T10:02:34.453Z,99.99
2017-11-28T10:03:34.436Z,99.99
2017-11-28T10:04:34.690Z,99.99
2017-11-28T10:05:34.673Z,99.99
2017-11-28T10:06:34.388Z,99.99
2017-11-28T10:07:34.365Z,99.99
2017-11-28T10:08:34.346Z,99.99
2017-11-28T10:09:34.342Z,99.99
2017-11-28T10:10:34.315Z,99.99
2017-11-28T10:11:34.300Z,99.99
2017-11-28T10:12:34.282Z,99.99
2017-11-28T10:13:34.267Z,99.99
2017-11-28T10:14:34.252Z,99.99
2017-11-28T10:15:34.236Z,99.99
2017-11-28T10:16:34.495Z,99.99
2017-11-28T10:17:34.198Z,99.99
2017-11-28T10:18:34.460Z,99.99
2017-11-28T10:19:34.439Z,99.99
2017-11-28T10:20:34.430Z,99.99
2017-11-28T10:21:34.130Z,99.99
2017-11-28T10:22:34.115Z,99.99
2017-11-28T10:23:34.368Z,99.99
2017-11-28T10:24:34.352Z,99.99
2017-11-28T10:25:34.065Z,99.99
2017-11-28T10:26:34.046Z,99.99
2017-11-28T10:27:34.031Z,99.99
2017-11-28T10:28:34.290Z,99.99
2017-11-28T10:29:34.265Z,99.99
2017-11-28T10:30:33.976Z,99.99
2017-11-28T10:31:33.958Z,99.99
2017-11-28T10:32:34.211Z,99.99
2017-11-28T10:33:33.924Z,99.99
2017-11-28T10:34:33.924Z,99.99
2017-11-28T10:35:34.173Z,99.99
2017-11-28T10:36:33.874Z,99.99
2017-11-28T10:37:33.854Z,99.99
2017-11-28T10:38:34.107Z,99.99
2017-11-28T10:39:34.096Z,99.99
2017-11-28T10:40:33.808Z,99.99
2017-11-28T10:41:34.054Z,99.99
2017-11-28T10:42:34.045Z,99.99
2017-11-28T10:43:33.751Z,99.99
2017-11-28T10:44:34.021Z,99.99
2017-11-28T10:45:33.993Z,99.99
2017-11-28T10:46:33.699Z,99.99
2017-11-28T10:47:33.948Z,99.99
2017-11-28T10:48:33.666Z,99.99
2017-11-28T10:49:33.652Z,99.99
2017-11-28T10:50:33.897Z,99.99
2017-11-28T10:51:33.884Z,99.99
2017-11-28T10:52:33.876Z,99.99
2017-11-28T10:53:33.858Z,99.99
2017-11-28T10:54:33.564Z,99.99
2017-11-28T10:55:33.818Z,99.99
2017-11-28T10:56:33.525Z,99.99
2017-11-28T10:57:33.777Z,99.99
2017-11-28T10:58:33.770Z,99.99
2017-11-28T10:59:33.745Z,99.99
2017-11-28T11:00:33.725Z,99.99
2017-11-28T11:01:33.433Z,99.99
2017-11-28T11:02:33.419Z,99.99
2017-11-28T11:03:33.673Z,99.99
2017-11-28T11:04:33.386Z,99.99
2017-11-28T11:05:33.638Z,99.99
2017-11-28T11:06:33.624Z,99.99
2017-11-28T11:07:33.331Z,99.99
2017-11-28T11:08:33.586Z,99.99
2017-11-28T11:09:33.294Z,99.99
2017-11-28T11:10:33.279Z,99.99
2017-11-28T11:11:33.525Z,99.99
2017-11-28T11:12:33.510Z,99.99
2017-11-28T11:13:33.223Z,99.99
2017-11-28T11:14:33.209Z,99.99
2017-11-28T11:15:33.190Z,99.99
2017-11-28T11:16:33.454Z,99.99
2017-11-28T11:17:33.153Z,99.99
2017-11-28T11:18:33.135Z,99.99
2017-11-28T11:19:33.127Z,99.99
2017-11-28T11:20:33.368Z,99.99
2017-11-28T11:21:33.355Z,99.99
2017-11-28T11:22:33.064Z,99.99
2017-11-28T11:23:33.046Z,99.99
2017-11-28T11:24:33.298Z,99.99
2017-11-28T11:25:33.291Z,99.99
2017-11-28T11:26:33.263Z,99.99
2017-11-28T11:27:33.253Z,99.99
2017-11-28T11:28:33.232Z,99.99
2017-11-28T11:29:32.940Z,99.99
2017-11-28T11:30:32.921Z,99.99
2017-11-28T11:31:32.903Z,99.99
2017-11-28T11:32:33.157Z,99.99
2017-11-28T11:33:32.868Z,99.99
2017-11-28T11:34:33.122Z,99.99
2017-11-28T11:35:32.844Z,99.99
2017-11-28T11:36:33.086Z,99.99
2017-11-28T11:37:33.064Z,99.99
2017-11-28T11:38:33.051Z,99.99
2017-11-28T11:39:33.037Z,99.99
2017-11-28T11:40:33.010Z,99.99
2017-11-28T11:41:32.992Z,99.99
2017-11-28T11:42:32.706Z,99.99
2017-11-28T11:43:32.686Z,99.99
2017-11-28T11:44:32.936Z,99.99
2017-11-28T11:45:32.925Z,99.99
2017-11-28T11:46:32.909Z,99.99
2017-11-28T11:47:32.617Z,99.99
2017-11-28T11:48:32.597Z,99.99
2017-11-28T11:49:32.575Z,99.99
2017-11-28T11:50:32.825Z,99.99
2017-11-28T11:51:32.541Z,99.99
2017-11-28T11:52:32.794Z,99.99
2017-11-28T11:53:32.502Z,99.99
2017-11-28T11:54:32.757Z,99.99
2017-11-28T11:55:32.744Z,99.99
2017-11-28T11:56:32.448Z,99.99
2017-11-28T11:57:32.700Z,99.99
2017-11-28T11:58:32.408Z,99.99
2017-11-28T11:59:32.390Z,99.99
2017-11-28T12:00:32.651Z,99.99
2017-11-28T12:01:32.354Z,99.99
2017-11-28T12:02:32.335Z,99.99
2017-11-28T12:03:32.590Z,99.99
2017-11-28T12:04:32.573Z,99.99
2017-11-28T12:05:32.280Z,99.99
2017-11-28T12:06:32.530Z,99.99
2017-11-28T12:07:32.240Z,99.99
2017-11-28T12:08:32.488Z,99.99
2017-11-28T12:09:32.205Z,99.99
2017-11-28T12:10:32.184Z,99.99
2017-11-28T12:11:32.442Z,99.99
2017-11-28T12:12:32.416Z,99.99
2017-11-28T12:13:32.130Z,99.99
2017-11-28T12:14:32.377Z,99.99
2017-11-28T12:15:32.565Z,99.99
2017-11-28T12:16:32.339Z,99.99
2017-11-28T12:17:32.320Z,99.99
2017-11-28T12:18:32.303Z,99.99
2017-11-28T12:19:32.303Z,99.99
2017-11-28T12:20:32.284Z,99.99
2017-11-28T12:21:32.263Z,99.99
2017-11-28T12:22:32.231Z,99.99
2017-11-28T12:23:31.943Z,99.99
2017-11-28T12:24:31.924Z,99.99
2017-11-28T12:25:32.187Z,99.99
2017-11-28T12:26:31.887Z,99.99
2017-11-28T12:27:31.869Z,99.99
2017-11-28T12:28:31.851Z,99.99
2017-11-28T12:29:32.103Z,99.99
2017-11-28T12:30:32.085Z,99.99
2017-11-28T12:31:31.796Z,99.99
2017-11-28T12:32:32.046Z,99.99
2017-11-28T12:33:32.034Z,99.99
2017-11-28T12:34:31.737Z,99.99
2017-11-28T12:35:31.999Z,99.99
2017-11-28T12:36:31.973Z,99.99
2017-11-28T12:37:31.694Z,99.99
2017-11-28T12:38:31.944Z,99.99
2017-11-28T12:39:31.655Z,99.99
2017-11-28T12:40:31.897Z,99.99
2017-11-28T12:41:31.892Z,99.99
2017-11-28T12:42:31.866Z,99.99
2017-11-28T12:43:31.849Z,99.99
2017-11-28T12:44:31.820Z,99.99
2017-11-28T12:45:31.531Z,99.99
2017-11-28T12:46:31.789Z,99.99
2017-11-28T12:47:31.506Z,99.99
2017-11-28T12:48:31.479Z,99.99
2017-11-28T12:49:31.733Z,99.99
2017-11-28T12:50:31.443Z,99.99
2017-11-28T12:51:31.690Z,99.99
2017-11-28T12:52:31.679Z,99.99
2017-11-28T12:53:31.651Z,99.99
2017-11-28T12:54:31.366Z,99.99